Time;durP1;ratioP1;P1;durP2;ratioP2;P2;SDS_P1;SDS_P2;PMS_P1;PMS_P2;Temp;Humidity;BMP_temperature;BMP_pressure;BME280_temperature;BME280_humidity;BME280_pressure;Samples;Min_cycle;Max_cycle;Signal;HPM_P1;HPM_P2
2023/02/16 00:00:16;;;;;;;10.52;5.15;;;;;;;;;;5029777;28;20527;-80
2023/02/16 00:02:42;;;;;;;15.25;5.60;;;;;;;;;;5029314;28;20104;-80
2023/02/16 00:05:32;;;;;;;12.63;5.78;;;;;;;;;;5031324;28;20049;-78
2023/02/16 00:07:59;;;;;;;13.52;6.15;;;;;;;;;;5029643;28;20139;-78
2023/02/16 00:10:28;;;;;;;12.98;5.63;;;;;;;;;;5032311;28;20049;-79
2023/02/16 00:15:39;;;;;;;17.33;6.27;;;;;;;;;;5032192;28;20128;-80
2023/02/16 00:18:17;;;;;;;14.52;6.30;;;;;;;;;;5030295;28;20081;-79
2023/02/16 00:20:43;;;;;;;15.95;6.03;;;;;;;;;;5030994;28;20060;-80
2023/02/16 00:23:10;;;;;;;15.10;6.13;;;;;;;;;;5032792;28;20048;-79
2023/02/16 00:25:36;;;;;;;13.20;6.18;;;;;;;;;;5034690;28;20112;-79
2023/02/16 00:28:04;;;;;;;13.82;6.03;;;;;;;;;;5033865;28;20502;-79
2023/02/16 00:30:31;;;;;;;17.35;6.93;;;;;;;;;;5034250;28;20049;-79
2023/02/16 00:32:58;;;;;;;15.50;6.53;;;;;;;;;;5034536;28;20144;-79
2023/02/16 00:35:24;;;;;;;14.65;6.68;;;;;;;;;;5033955;28;20058;-80
2023/02/16 00:37:51;;;;;;;13.18;6.28;;;;;;;;;;5032516;28;20051;-81
2023/02/16 00:40:17;;;;;;;16.15;6.38;;;;;;;;;;5034217;28;20638;-78
2023/02/16 00:42:45;;;;;;;16.13;7.07;;;;;;;;;;5035063;28;20057;-80
2023/02/16 00:45:18;;;;;;;16.55;7.03;;;;;;;;;;5034835;28;20271;-80
2023/02/16 00:47:46;;;;;;;18.90;7.15;;;;;;;;;;5033722;28;20059;-79
2023/02/16 00:50:22;;;;;;;19.70;7.38;;;;;;;;;;5033337;28;20520;-78
2023/02/16 00:52:49;;;;;;;17.80;7.38;;;;;;;;;;5034527;28;20045;-78
2023/02/16 00:55:23;;;;;;;17.02;7.30;;;;;;;;;;5035629;28;20268;-79
2023/02/16 00:58:09;;;;;;;20.60;8.05;;;;;;;;;;5034349;28;20053;-79
2023/02/16 01:00:40;;;;;;;17.88;7.07;;;;;;;;;;5035676;28;20077;-80
2023/02/16 01:03:17;;;;;;;20.33;7.60;;;;;;;;;;5037243;28;20049;-79
2023/02/16 01:05:44;;;;;;;17.52;7.30;;;;;;;;;;5038094;28;20607;-79
2023/02/16 01:11:08;;;;;;;17.80;7.75;;;;;;;;;;5036179;28;20053;-79
2023/02/16 01:13:37;;;;;;;22.35;7.72;;;;;;;;;;5035481;28;20170;-78
2023/02/16 01:16:14;;;;;;;21.02;8.10;;;;;;;;;;5033762;28;20053;-79
2023/02/16 01:18:41;;;;;;;20.90;7.47;;;;;;;;;;5033555;28;20049;-79
2023/02/16 01:21:07;;;;;;;20.13;8.15;;;;;;;;;;5034418;28;20148;-79
2023/02/16 01:23:35;;;;;;;18.55;7.75;;;;;;;;;;5033450;28;20485;-79
2023/02/16 01:26:01;;;;;;;20.45;7.40;;;;;;;;;;5037066;28;20080;-78
2023/02/16 01:28:28;;;;;;;16.65;7.45;;;;;;;;;;5036721;28;20050;-79
2023/02/16 01:30:54;;;;;;;20.50;7.68;;;;;;;;;;5036838;28;20053;-79
2023/02/16 01:33:21;;;;;;;18.88;7.70;;;;;;;;;;5036515;28;20540;-79
2023/02/16 01:35:48;;;;;;;19.50;7.70;;;;;;;;;;5039489;28;20042;-79
2023/02/16 01:38:16;;;;;;;17.20;7.68;;;;;;;;;;5034525;28;20446;-79
2023/02/16 01:40:47;;;;;;;19.08;8.20;;;;;;;;;;5035071;28;20068;-79
2023/02/16 01:43:21;;;;;;;17.90;7.72;;;;;;;;;;5036004;28;20060;-79
2023/02/16 01:45:59;;;;;;;20.40;8.52;;;;;;;;;;5035122;28;20148;-78
2023/02/16 01:48:29;;;;;;;19.38;7.88;;;;;;;;;;5034602;28;20051;-78
2023/02/16 01:51:14;;;;;;;19.67;8.25;;;;;;;;;;5034031;28;20061;-78
2023/02/16 01:53:53;;;;;;;20.47;8.37;;;;;;;;;;5034142;28;20057;-79
2023/02/16 01:56:40;;;;;;;21.80;9.25;;;;;;;;;;5033996;28;20534;-79
2023/02/16 01:59:14;;;;;;;18.95;7.82;;;;;;;;;;5033465;28;20050;-79
2023/02/16 02:01:43;;;;;;;19.48;8.88;;;;;;;;;;5034113;28;20122;-78
2023/02/16 02:07:07;;;;;;;22.33;8.88;;;;;;;;;;5032903;28;20136;-78
2023/02/16 02:09:40;;;;;;;23.95;9.00;;;;;;;;;;5031458;28;20054;-79
2023/02/16 02:12:12;;;;;;;22.30;8.93;;;;;;;;;;5033395;28;20345;-78
2023/02/16 02:14:39;;;;;;;22.77;9.13;;;;;;;;;;5033384;28;20418;-78
2023/02/16 02:17:08;;;;;;;20.05;9.05;;;;;;;;;;5023213;28;20045;-79
2023/02/16 02:19:44;;;;;;;25.30;9.18;;;;;;;;;;5032896;28;20053;-78
2023/02/16 02:25:13;;;;;;;28.92;10.02;;;;;;;;;;5033129;28;20053;-79
2023/02/16 02:27:44;;;;;;;26.75;10.73;;;;;;;;;;5032780;28;20061;-80
2023/02/16 02:30:29;;;;;;;24.08;10.98;;;;;;;;;;5030850;28;20148;-79
2023/02/16 02:32:56;;;;;;;25.08;10.93;;;;;;;;;;5032145;28;20045;-78
2023/02/16 02:35:31;;;;;;;27.45;10.23;;;;;;;;;;5033174;28;20052;-78
2023/02/16 02:38:11;;;;;;;24.63;11.38;;;;;;;;;;5032013;28;20081;-79
2023/02/16 02:40:46;;;;;;;24.60;10.50;;;;;;;;;;5032148;28;20061;-78
2023/02/16 02:43:33;;;;;;;24.75;10.75;;;;;;;;;;5033317;28;20045;-79
2023/02/16 02:46:04;;;;;;;26.17;9.97;;;;;;;;;;5031754;28;20045;-78
2023/02/16 02:48:34;;;;;;;27.17;11.25;;;;;;;;;;5030878;28;20490;-79
2023/02/16 03:00:39;;;;;;;25.05;11.32;;;;;;;;;;5033234;28;20060;-80
2023/02/16 03:02:07;;;;;;;27.30;12.25;;;;;;;;;;5033476;28;20053;-78
2023/02/16 03:04:34;;;;;;;26.05;11.75;;;;;;;;;;5032623;28;20045;-79
2023/02/16 03:07:02;;;;;;;26.25;12.32;;;;;;;;;;5030895;28;20136;-78
2023/02/16 03:09:28;;;;;;;30.88;12.32;;;;;;;;;;5030193;28;20068;-77
2023/02/16 03:14:44;;;;;;;26.02;11.57;;;;;;;;;;5031057;28;20088;-78
2023/02/16 03:31:04;;;;;;;28.83;11.85;;;;;;;;;;5030199;28;20446;-78
2023/02/16 03:33:31;;;;;;;26.75;11.73;;;;;;;;;;5028994;28;20053;-79
2023/02/16 03:35:58;;;;;;;29.60;12.23;;;;;;;;;;5009417;28;20502;-78
2023/02/16 03:38:25;;;;;;;27.95;12.43;;;;;;;;;;5023584;28;20092;-78
2023/02/16 03:40:51;;;;;;;30.60;12.32;;;;;;;;;;5028619;28;20231;-78
2023/02/16 03:43:18;;;;;;;29.83;12.80;;;;;;;;;;5030000;28;20041;-78
2023/02/16 03:45:44;;;;;;;29.38;11.60;;;;;;;;;;5030513;28;20049;-78
2023/02/16 03:48:11;;;;;;;25.42;11.88;;;;;;;;;;5011332;28;20455;-77
2023/02/16 03:50:37;;;;;;;28.00;11.80;;;;;;;;;;5030897;28;20049;-79
2023/02/16 03:53:07;;;;;;;30.33;12.45;;;;;;;;;;5030675;28;20057;-78
2023/02/16 03:55:45;;;;;;;28.05;12.63;;;;;;;;;;5030221;28;20485;-79
2023/02/16 03:58:13;;;;;;;28.15;12.43;;;;;;;;;;5015220;28;20068;-78
2023/02/16 04:00:39;;;;;;;27.13;11.40;;;;;;;;;;5036371;28;20041;-79
2023/02/16 04:03:07;;;;;;;30.10;12.68;;;;;;;;;;5036220;28;20092;-78
2023/02/16 04:05:34;;;;;;;28.92;12.95;;;;;;;;;;5018393;28;20140;-78
2023/02/16 04:08:00;;;;;;;28.52;11.57;;;;;;;;;;5034593;28;20049;-79
2023/02/16 04:10:26;;;;;;;25.88;12.07;;;;;;;;;;5035907;28;20399;-79
2023/02/16 04:12:53;;;;;;;27.58;11.82;;;;;;;;;;5035148;28;20053;-80
2023/02/16 04:15:21;;;;;;;30.63;11.80;;;;;;;;;;5023275;28;20158;-79
2023/02/16 04:17:47;;;;;;;27.20;11.57;;;;;;;;;;5033605;28;20061;-80
2023/02/16 04:20:16;;;;;;;26.85;12.23;;;;;;;;;;5034337;28;20045;-80
2023/02/16 04:22:42;;;;;;;29.13;12.30;;;;;;;;;;5033144;28;20182;-79
2023/02/16 04:25:09;;;;;;;29.88;12.57;;;;;;;;;;5035357;28;20049;-78
2023/02/16 04:27:38;;;;;;;27.67;12.43;;;;;;;;;;5038103;28;20050;-80
2023/02/16 04:30:06;;;;;;;28.98;11.98;;;;;;;;;;5037486;28;20053;-79
2023/02/16 04:32:32;;;;;;;33.40;13.55;;;;;;;;;;5032388;28;20049;-80
2023/02/16 04:34:59;;;;;;;28.42;12.23;;;;;;;;;;5034828;28;20064;-78
2023/02/16 04:37:25;;;;;;;27.02;11.95;;;;;;;;;;5034490;28;20049;-79
2023/02/16 04:39:51;;;;;;;31.17;12.40;;;;;;;;;;5041665;28;20132;-80
2023/02/16 04:42:18;;;;;;;33.60;12.68;;;;;;;;;;5037096;28;20064;-79
2023/02/16 04:44:44;;;;;;;30.58;12.60;;;;;;;;;;5035865;28;20393;-79
2023/02/16 04:47:10;;;;;;;33.60;13.25;;;;;;;;;;5031625;28;20072;-79
2023/02/16 04:49:37;;;;;;;32.28;13.23;;;;;;;;;;5032534;28;20049;-80
2023/02/16 04:52:04;;;;;;;28.33;12.45;;;;;;;;;;5032793;28;20049;-80
2023/02/16 04:54:31;;;;;;;40.05;15.45;;;;;;;;;;5032799;28;20141;-79
2023/02/16 04:56:58;;;;;;;38.53;13.93;;;;;;;;;;5033001;28;20053;-80
2023/02/16 04:59:24;;;;;;;37.67;15.02;;;;;;;;;;5035597;28;20041;-80
2023/02/16 05:01:52;;;;;;;38.88;14.15;;;;;;;;;;5042960;28;20045;-80
2023/02/16 05:04:18;;;;;;;43.33;15.10;;;;;;;;;;5045887;28;20050;-80
2023/02/16 05:06:45;;;;;;;36.38;15.05;;;;;;;;;;5036587;28;20058;-80
2023/02/16 05:09:11;;;;;;;35.10;14.55;;;;;;;;;;5038762;28;20076;-81
2023/02/16 05:14:45;;;;;;;33.60;13.98;;;;;;;;;;5037032;28;20132;-81
2023/02/16 05:17:12;;;;;;;35.70;13.65;;;;;;;;;;5029202;28;20246;-80
2023/02/16 05:19:39;;;;;;;37.00;14.57;;;;;;;;;;5038273;28;20052;-81
2023/02/16 05:22:06;;;;;;;39.85;14.82;;;;;;;;;;5032985;28;20076;-75
2023/02/16 05:24:33;;;;;;;32.28;13.68;;;;;;;;;;5029598;28;20052;-77
2023/02/16 05:27:00;;;;;;;34.20;14.77;;;;;;;;;;5029920;28;20053;-76
2023/02/16 05:29:27;;;;;;;34.20;14.95;;;;;;;;;;5023343;28;20049;-78
2023/02/16 05:31:53;;;;;;;37.78;15.27;;;;;;;;;;5016400;28;20091;-81
2023/02/16 05:34:20;;;;;;;36.03;15.02;;;;;;;;;;5037135;28;20049;-80
2023/02/16 05:36:46;;;;;;;36.83;14.85;;;;;;;;;;5015431;28;20057;-79
2023/02/16 05:39:13;;;;;;;35.78;15.52;;;;;;;;;;5032345;28;20421;-80
2023/02/16 05:41:39;;;;;;;36.00;14.73;;;;;;;;;;5034079;28;20041;-81
2023/02/16 05:44:06;;;;;;;34.70;14.32;;;;;;;;;;5033891;28;20113;-79
2023/02/16 05:46:35;;;;;;;34.35;13.68;;;;;;;;;;5034045;28;20053;-79
2023/02/16 05:49:01;;;;;;;41.05;15.52;;;;;;;;;;5033166;28;20054;-80
2023/02/16 05:51:28;;;;;;;33.47;14.32;;;;;;;;;;5033645;28;20049;-79
2023/02/16 05:53:54;;;;;;;33.53;13.95;;;;;;;;;;5032974;28;20053;-80
2023/02/16 05:56:21;;;;;;;33.78;13.43;;;;;;;;;;5016018;28;20515;-81
2023/02/16 05:58:47;;;;;;;41.17;14.85;;;;;;;;;;5030347;28;20060;-81
2023/02/16 06:01:14;;;;;;;35.30;14.73;;;;;;;;;;5030489;28;20045;-80
2023/02/16 06:03:41;;;;;;;32.00;13.88;;;;;;;;;;5012488;28;20053;-81
2023/02/16 06:06:08;;;;;;;33.58;14.07;;;;;;;;;;5014235;28;20041;-80
2023/02/16 06:08:35;;;;;;;37.80;14.70;;;;;;;;;;5031439;28;20042;-81
2023/02/16 06:11:02;;;;;;;37.83;14.63;;;;;;;;;;5016612;28;20147;-79
2023/02/16 06:13:28;;;;;;;32.65;14.15;;;;;;;;;;5043120;28;20141;-80
2023/02/16 06:15:56;;;;;;;39.00;14.90;;;;;;;;;;5035662;28;20059;-81
2023/02/16 06:18:23;;;;;;;34.10;14.85;;;;;;;;;;5032564;28;20284;-80
2023/02/16 06:20:49;;;;;;;33.20;14.20;;;;;;;;;;5031631;28;20505;-80
2023/02/16 06:23:16;;;;;;;32.63;14.05;;;;;;;;;;5032399;28;20085;-80
2023/02/16 06:25:43;;;;;;;33.22;14.27;;;;;;;;;;5033308;28;20446;-79
2023/02/16 06:28:11;;;;;;;38.63;14.13;;;;;;;;;;5032626;28;20056;-81
2023/02/16 06:30:37;;;;;;;32.72;13.77;;;;;;;;;;5031660;28;20075;-79
2023/02/16 06:33:03;;;;;;;34.05;14.20;;;;;;;;;;5029845;28;20045;-80
2023/02/16 06:35:30;;;;;;;34.00;13.73;;;;;;;;;;5032709;28;20490;-80
2023/02/16 06:37:58;;;;;;;38.33;14.95;;;;;;;;;;5031933;28;20045;-79
2023/02/16 06:40:24;;;;;;;36.88;14.75;;;;;;;;;;5032446;28;20041;-80
2023/02/16 06:42:51;;;;;;;34.53;13.77;;;;;;;;;;5031347;28;20128;-80
2023/02/16 06:45:18;;;;;;;33.28;14.27;;;;;;;;;;5031258;28;20109;-80
2023/02/16 06:47:44;;;;;;;44.67;16.02;;;;;;;;;;5031369;28;20056;-80
2023/02/16 06:50:13;;;;;;;37.70;15.43;;;;;;;;;;5032682;28;20148;-80
2023/02/16 06:52:39;;;;;;;40.35;16.45;;;;;;;;;;5032714;28;20118;-81
2023/02/16 06:55:06;;;;;;;40.20;16.55;;;;;;;;;;5032178;28;20501;-79
2023/02/16 06:57:32;;;;;;;40.80;16.92;;;;;;;;;;5032433;28;20049;-80
2023/02/16 06:59:59;;;;;;;45.20;17.10;;;;;;;;;;5033040;28;20052;-80
2023/02/16 07:02:25;;;;;;;45.97;18.33;;;;;;;;;;5035741;28;20041;-80
2023/02/16 07:04:53;;;;;;;44.00;17.90;;;;;;;;;;5037341;28;20505;-80
2023/02/16 07:07:22;;;;;;;48.70;19.30;;;;;;;;;;5036728;28;20049;-80
2023/02/16 07:09:49;;;;;;;46.58;18.65;;;;;;;;;;5035954;28;20160;-79
2023/02/16 07:12:15;;;;;;;49.63;18.98;;;;;;;;;;5039352;28;20136;-79
2023/02/16 07:14:42;;;;;;;48.95;19.85;;;;;;;;;;5034052;28;20061;-80
2023/02/16 07:17:09;;;;;;;52.17;19.45;;;;;;;;;;5023611;28;20050;-80
2023/02/16 07:19:36;;;;;;;49.65;19.20;;;;;;;;;;5029018;28;20145;-79
2023/02/16 07:22:02;;;;;;;49.97;18.27;;;;;;;;;;5032228;28;20049;-79
2023/02/16 07:24:29;;;;;;;44.50;17.67;;;;;;;;;;5031040;28;20046;-80
2023/02/16 07:26:55;;;;;;;45.90;18.05;;;;;;;;;;5030344;28;20052;-80
2023/02/16 07:29:22;;;;;;;42.90;16.85;;;;;;;;;;5032986;28;20121;-80
2023/02/16 07:31:49;;;;;;;49.05;17.40;;;;;;;;;;5032166;28;20049;-80
2023/02/16 07:34:16;;;;;;;41.30;16.60;;;;;;;;;;5029368;28;20053;-80
2023/02/16 07:36:43;;;;;;;43.20;17.30;;;;;;;;;;5031268;28;20049;-79
2023/02/16 07:39:10;;;;;;;41.55;17.40;;;;;;;;;;5031378;28;20045;-80
2023/02/16 07:41:37;;;;;;;45.33;17.13;;;;;;;;;;5033740;28;20087;-80
2023/02/16 07:44:03;;;;;;;42.65;16.65;;;;;;;;;;5032726;28;20057;-79
2023/02/16 07:46:30;;;;;;;38.05;15.65;;;;;;;;;;5034558;28;20126;-81
2023/02/16 07:48:58;;;;;;;31.90;13.80;;;;;;;;;;5034728;28;20053;-80
2023/02/16 07:51:26;;;;;;;34.05;12.95;;;;;;;;;;5031223;28;20055;-79
2023/02/16 07:53:52;;;;;;;28.90;13.20;;;;;;;;;;5029757;28;20054;-80
2023/02/16 07:56:20;;;;;;;28.77;12.50;;;;;;;;;;5030598;28;20057;-79
2023/02/16 07:58:46;;;;;;;29.40;12.15;;;;;;;;;;5031207;28;20079;-80
2023/02/16 08:01:13;;;;;;;25.50;12.02;;;;;;;;;;5031890;28;20051;-80
2023/02/16 08:03:41;;;;;;;30.17;11.90;;;;;;;;;;5029859;28;20434;-81
2023/02/16 08:06:08;;;;;;;25.45;11.70;;;;;;;;;;5031987;28;20046;-81
2023/02/16 08:08:35;;;;;;;26.95;11.40;;;;;;;;;;5030505;28;20053;-81
2023/02/16 08:11:08;;;;;;;22.30;10.60;;;;;;;;;;5030570;28;20063;-81
2023/02/16 08:13:35;;;;;;;23.30;11.07;;;;;;;;;;5030642;28;20152;-80
2023/02/16 08:16:01;;;;;;;26.48;11.13;;;;;;;;;;5030222;28;20499;-78
2023/02/16 08:18:29;;;;;;;22.38;10.90;;;;;;;;;;5029913;28;20049;-81
2023/02/16 08:20:56;;;;;;;28.77;11.70;;;;;;;;;;5029807;28;20046;-79
2023/02/16 08:23:30;;;;;;;20.35;9.90;;;;;;;;;;5027489;28;20068;-82
2023/02/16 08:25:57;;;;;;;22.52;10.70;;;;;;;;;;5028114;28;20099;-79
2023/02/16 08:28:27;;;;;;;24.42;10.88;;;;;;;;;;5028846;28;20300;-79
2023/02/16 08:30:54;;;;;;;22.73;10.93;;;;;;;;;;5029173;28;20084;-82
2023/02/16 08:33:20;;;;;;;22.90;10.60;;;;;;;;;;5028725;28;20300;-79
2023/02/16 08:35:47;;;;;;;26.20;10.85;;;;;;;;;;5028414;28;20076;-79
2023/02/16 08:38:16;;;;;;;21.85;10.25;;;;;;;;;;5026506;28;20045;-81
2023/02/16 08:40:47;;;;;;;29.00;10.30;;;;;;;;;;5030972;28;20077;-82
2023/02/16 08:43:14;;;;;;;26.08;11.07;;;;;;;;;;5030940;28;20045;-80
2023/02/16 08:45:47;;;;;;;25.00;11.13;;;;;;;;;;5033026;28;20171;-80
2023/02/16 08:48:14;;;;;;;24.38;10.98;;;;;;;;;;5032289;28;20402;-79
2023/02/16 08:50:45;;;;;;;23.30;10.90;;;;;;;;;;5034238;28;20061;-80
2023/02/16 08:53:13;;;;;;;29.23;10.68;;;;;;;;;;5032100;28;20421;-79
2023/02/16 08:55:39;;;;;;;24.27;10.95;;;;;;;;;;5034270;28;20088;-79
2023/02/16 08:58:05;;;;;;;22.40;10.43;;;;;;;;;;5033080;28;20121;-80
2023/02/16 09:00:36;;;;;;;27.30;11.25;;;;;;;;;;5031673;28;20561;-79
2023/02/16 09:03:03;;;;;;;24.85;11.50;;;;;;;;;;5031116;28;20108;-81
2023/02/16 09:05:30;;;;;;;24.55;10.65;;;;;;;;;;5031370;28;20049;-80
2023/02/16 09:07:57;;;;;;;25.17;11.43;;;;;;;;;;5030643;28;20056;-79
2023/02/16 09:10:23;;;;;;;23.67;11.32;;;;;;;;;;5033035;28;20057;-81
2023/02/16 09:12:50;;;;;;;29.15;12.10;;;;;;;;;;5033506;28;20052;-80
2023/02/16 09:15:16;;;;;;;23.70;11.77;;;;;;;;;;5024336;28;20133;-80
2023/02/16 09:17:43;;;;;;;29.52;11.52;;;;;;;;;;5024321;28;20168;-81
2023/02/16 09:20:11;;;;;;;28.70;11.73;;;;;;;;;;5032959;28;20136;-81
2023/02/16 09:22:38;;;;;;;27.15;11.30;;;;;;;;;;5032504;28;20099;-81
2023/02/16 09:25:06;;;;;;;27.30;12.20;;;;;;;;;;5033175;28;20482;-81
2023/02/16 09:27:33;;;;;;;26.58;11.32;;;;;;;;;;5033017;28;20051;-81
2023/02/16 09:29:59;;;;;;;26.20;11.75;;;;;;;;;;5033713;28;20069;-80
2023/02/16 09:32:29;;;;;;;27.08;12.48;;;;;;;;;;5030904;28;20049;-79
2023/02/16 09:34:55;;;;;;;24.50;11.27;;;;;;;;;;5030677;28;20053;-81
2023/02/16 09:37:22;;;;;;;22.65;11.13;;;;;;;;;;5032343;28;20637;-80
2023/02/16 09:39:51;;;;;;;29.17;11.95;;;;;;;;;;5031130;28;20045;-81
2023/02/16 09:42:27;;;;;;;22.40;11.27;;;;;;;;;;5034369;28;20148;-80
2023/02/16 09:45:03;;;;;;;21.80;11.25;;;;;;;;;;5031646;28;20123;-81
2023/02/16 09:47:29;;;;;;;;;;;;;;;;;;5032578;28;20067;-80
2023/02/16 09:49:58;;;;;;;25.92;12.02;;;;;;;;;;5030870;28;19992;-79
2023/02/16 09:52:27;;;;;;;27.83;12.20;;;;;;;;;;5033480;28;20049;-81
2023/02/16 09:54:55;;;;;;;25.70;12.00;;;;;;;;;;5033626;28;20140;-81
2023/02/16 09:57:26;;;;;;;26.48;13.02;;;;;;;;;;5031509;28;20060;-80
2023/02/16 10:00:11;;;;;;;27.08;12.98;;;;;;;;;;5033639;28;20276;-80
2023/02/16 10:02:38;;;;;;;24.85;12.60;;;;;;;;;;5034767;28;20244;-81
2023/02/16 10:05:19;;;;;;;26.52;12.18;;;;;;;;;;5035710;28;20049;-79
2023/02/16 10:08:04;;;;;;;27.38;12.05;;;;;;;;;;5043145;28;20060;-77
2023/02/16 10:10:38;;;;;;;27.30;11.82;;;;;;;;;;5047317;28;20056;-79
2023/02/16 10:13:10;;;;;;;24.27;11.75;;;;;;;;;;5047035;28;20072;-80
2023/02/16 10:15:37;;;;;;;26.73;12.73;;;;;;;;;;5042561;28;20083;-80
2023/02/16 10:18:23;;;;;;;22.80;11.68;;;;;;;;;;5043074;28;20248;-79
2023/02/16 10:20:51;;;;;;;25.70;12.65;;;;;;;;;;5033196;28;20113;-80
2023/02/16 10:23:36;;;;;;;25.08;12.30;;;;;;;;;;5040059;28;20041;-80
2023/02/16 10:26:11;;;;;;;24.33;11.60;;;;;;;;;;5039254;28;20053;-80
2023/02/16 10:28:46;;;;;;;23.05;11.43;;;;;;;;;;5036572;28;20081;-81
2023/02/16 10:31:32;;;;;;;25.20;12.10;;;;;;;;;;5035765;28;20053;-83
2023/02/16 10:34:02;;;;;;;24.85;11.23;;;;;;;;;;5034108;28;20065;-80
2023/02/16 10:36:48;;;;;;;22.67;11.88;;;;;;;;;;5036972;28;20053;-79
2023/02/16 10:39:17;;;;;;;27.83;12.35;;;;;;;;;;5036491;28;20045;-81
2023/02/16 10:41:45;;;;;;;23.98;11.02;;;;;;;;;;5035820;28;20046;-80
2023/02/16 10:44:13;;;;;;;23.45;11.90;;;;;;;;;;5036320;28;20045;-81
2023/02/16 10:46:42;;;;;;;23.02;11.52;;;;;;;;;;5034324;28;20045;-80
2023/02/16 10:49:13;;;;;;;25.00;11.70;;;;;;;;;;5033150;28;20057;-81
2023/02/16 10:51:41;;;;;;;23.02;11.27;;;;;;;;;;5035645;28;20045;-80
2023/02/16 10:54:13;;;;;;;20.88;11.60;;;;;;;;;;5036949;28;20057;-80
2023/02/16 10:56:40;;;;;;;23.58;11.88;;;;;;;;;;5032497;28;20536;-79
2023/02/16 10:59:12;;;;;;;23.65;11.63;;;;;;;;;;5031873;28;20525;-80
2023/02/16 11:01:42;;;;;;;23.52;11.98;;;;;;;;;;5030994;28;20429;-81
2023/02/16 11:04:27;;;;;;;20.98;11.32;;;;;;;;;;5032650;28;20091;-82
2023/02/16 11:07:23;;;;;;;19.85;10.52;;;;;;;;;;5031595;28;20050;-80
2023/02/16 11:09:54;;;;;;;21.77;10.82;;;;;;;;;;5022225;28;20061;-80
2023/02/16 11:12:25;;;;;;;18.80;10.90;;;;;;;;;;5038780;28;20412;-82
2023/02/16 11:14:54;;;;;;;20.70;11.27;;;;;;;;;;5032070;28;20561;-80
2023/02/16 11:17:21;;;;;;;21.83;11.80;;;;;;;;;;5026481;28;20422;-81
2023/02/16 11:19:52;;;;;;;20.42;10.88;;;;;;;;;;5006484;28;20050;-80
2023/02/16 11:22:31;;;;;;;22.35;11.25;;;;;;;;;;5029380;28;20045;-80
2023/02/16 11:25:16;;;;;;;21.95;11.50;;;;;;;;;;5012237;28;20055;-81
2023/02/16 11:27:48;;;;;;;20.33;11.18;;;;;;;;;;5030204;28;20050;-83
2023/02/16 11:30:21;;;;;;;21.13;11.27;;;;;;;;;;5031991;28;20075;-80
2023/02/16 11:32:49;;;;;;;20.55;11.15;;;;;;;;;;5031609;28;20268;-81
2023/02/16 11:35:16;;;;;;;21.77;11.18;;;;;;;;;;5030276;28;20424;-81
2023/02/16 11:37:43;;;;;;;21.88;10.68;;;;;;;;;;5011483;28;20229;-81
2023/02/16 11:40:21;;;;;;;19.52;10.27;;;;;;;;;;5030979;28;20045;-80
2023/02/16 11:42:49;;;;;;;21.45;11.02;;;;;;;;;;5030893;28;20132;-80
2023/02/16 11:45:21;;;;;;;21.90;11.18;;;;;;;;;;5030233;28;20077;-81
2023/02/16 11:47:52;;;;;;;19.70;10.52;;;;;;;;;;5029707;28;20049;-81
2023/02/16 11:50:20;;;;;;;22.60;11.30;;;;;;;;;;5013003;28;20502;-80
2023/02/16 11:52:48;;;;;;;24.60;12.23;;;;;;;;;;5030554;28;20358;-82
2023/02/16 11:55:32;;;;;;;18.92;11.15;;;;;;;;;;5013005;28;20064;-81
2023/02/16 11:58:17;;;;;;;21.50;11.40;;;;;;;;;;5039139;28;20049;-80
2023/02/16 12:00:46;;;;;;;20.60;10.93;;;;;;;;;;5038824;28;20045;-80
2023/02/16 12:03:23;;;;;;;19.15;11.00;;;;;;;;;;5039667;28;20294;-80
2023/02/16 12:06:08;;;;;;;19.23;11.18;;;;;;;;;;5039913;28;20064;-79
2023/02/16 12:08:51;;;;;;;22.42;11.35;;;;;;;;;;5039785;28;20068;-79
2023/02/16 12:11:18;;;;;;;21.52;11.88;;;;;;;;;;5013170;28;20430;-81
2023/02/16 12:13:49;;;;;;;23.23;11.60;;;;;;;;;;5030139;28;20054;-81
2023/02/16 12:16:36;;;;;;;21.52;11.93;;;;;;;;;;5019450;28;20445;-82
2023/02/16 12:19:03;;;;;;;22.02;12.35;;;;;;;;;;5022376;28;20049;-81
2023/02/16 12:21:44;;;;;;;22.70;12.55;;;;;;;;;;5034853;28;20469;-81
2023/02/16 12:24:13;;;;;;;25.50;13.30;;;;;;;;;;5034366;28;20465;-80
2023/02/16 12:26:50;;;;;;;25.40;13.13;;;;;;;;;;5033431;28;20077;-81
2023/02/16 12:29:19;;;;;;;25.52;12.32;;;;;;;;;;5034140;28;20049;-81
2023/02/16 12:31:57;;;;;;;23.38;13.07;;;;;;;;;;5033610;28;20053;-81
2023/02/16 12:34:32;;;;;;;23.02;12.55;;;;;;;;;;5033092;28;20111;-81
2023/02/16 12:37:21;;;;;;;23.60;12.77;;;;;;;;;;5032878;28;20053;-80
2023/02/16 12:39:57;;;;;;;26.13;12.82;;;;;;;;;;5015203;28;20101;-81
2023/02/16 12:42:23;;;;;;;26.52;12.90;;;;;;;;;;5034834;28;20132;-81
2023/02/16 12:44:53;;;;;;;23.02;11.82;;;;;;;;;;5034044;28;20057;-81
2023/02/16 12:47:28;;;;;;;22.67;12.82;;;;;;;;;;5032088;28;20137;-81
2023/02/16 12:49:55;;;;;;;;;;;;;;;;;;5034100;28;20071;-81
2023/02/16 12:52:23;;;;;;;;;;;;;;;;;;5031894;28;19921;-79
2023/02/16 12:54:56;;;;;;;22.00;11.98;;;;;;;;;;5032532;28;19925;-81
2023/02/16 12:57:24;;;;;;;25.30;12.70;;;;;;;;;;5033546;28;20077;-80
2023/02/16 13:00:01;;;;;;;21.70;12.25;;;;;;;;;;5034924;28;20049;-80
2023/02/16 13:02:39;;;;;;;26.88;13.88;;;;;;;;;;5033387;28;20048;-81
2023/02/16 13:05:20;;;;;;;23.15;13.55;;;;;;;;;;5033744;28;20049;-80
2023/02/16 13:07:49;;;;;;;26.27;13.27;;;;;;;;;;5032182;28;20046;-80
2023/02/16 13:10:21;;;;;;;24.42;13.70;;;;;;;;;;5033111;28;20144;-80
2023/02/16 13:12:54;;;;;;;27.65;13.85;;;;;;;;;;5033381;28;20152;-81
2023/02/16 13:15:33;;;;;;;27.33;14.23;;;;;;;;;;5032855;28;20386;-80
2023/02/16 13:18:17;;;;;;;24.92;13.65;;;;;;;;;;5032037;28;20105;-81
2023/02/16 13:20:47;;;;;;;24.23;13.23;;;;;;;;;;5031826;28;20042;-80
2023/02/16 13:23:27;;;;;;;25.40;14.38;;;;;;;;;;5032525;28;20046;-80
2023/02/16 13:26:09;;;;;;;23.92;13.50;;;;;;;;;;5030299;28;20128;-81
2023/02/16 13:28:39;;;;;;;25.98;13.88;;;;;;;;;;5032023;28;20060;-78
2023/02/16 13:31:14;;;;;;;29.75;15.30;;;;;;;;;;5031893;28;20136;-80
2023/02/16 13:33:47;;;;;;;34.63;14.75;;;;;;;;;;5033558;28;20064;-80
2023/02/16 13:36:17;;;;;;;27.33;14.02;;;;;;;;;;5031970;28;20050;-80
2023/02/16 13:39:03;;;;;;;29.67;14.70;;;;;;;;;;5031549;28;20497;-80
2023/02/16 13:41:40;;;;;;;27.92;14.43;;;;;;;;;;5033141;28;20124;-80
2023/02/16 13:44:11;;;;;;;30.52;14.68;;;;;;;;;;5030686;28;20175;-80
2023/02/16 13:46:52;;;;;;;32.58;15.60;;;;;;;;;;5031645;28;20053;-80
2023/02/16 13:49:27;;;;;;;32.33;15.70;;;;;;;;;;5034446;28;20092;-82
2023/02/16 13:51:54;;;;;;;31.50;15.60;;;;;;;;;;5033314;28;20476;-81
2023/02/16 13:54:25;;;;;;;28.33;14.05;;;;;;;;;;5037350;28;20515;-81
2023/02/16 13:56:52;;;;;;;30.73;14.68;;;;;;;;;;5037870;28;20121;-81
2023/02/16 13:59:18;;;;;;;29.80;14.77;;;;;;;;;;5037107;28;20064;-81
2023/02/16 14:01:45;;;;;;;29.30;13.82;;;;;;;;;;5039086;28;20140;-81
2023/02/16 14:04:20;;;;;;;31.50;14.65;;;;;;;;;;5035167;28;20049;-80
2023/02/16 14:06:48;;;;;;;37.35;15.40;;;;;;;;;;5035381;28;20045;-79
2023/02/16 14:09:15;;;;;;;27.33;14.25;;;;;;;;;;5032984;28;20084;-79
2023/02/16 14:11:54;;;;;;;29.00;14.63;;;;;;;;;;5033415;28;20144;-81
2023/02/16 14:14:25;;;;;;;31.13;15.18;;;;;;;;;;5033339;28;20065;-79
2023/02/16 14:16:53;;;;;;;30.77;14.13;;;;;;;;;;5031837;28;20112;-79
2023/02/16 14:19:24;;;;;;;27.10;13.70;;;;;;;;;;5031592;28;20049;-80
2023/02/16 14:21:51;;;;;;;26.73;14.10;;;;;;;;;;5032917;28;20135;-80
2023/02/16 14:24:37;;;;;;;28.55;13.75;;;;;;;;;;5030910;28;20054;-81
2023/02/16 14:27:03;;;;;;;;;;;;;;;;;;5030757;28;20521;-81
2023/02/16 14:29:37;;;;;;;28.13;13.38;;;;;;;;;;5031541;28;19927;-81
2023/02/16 14:32:15;;;;;;;29.27;13.45;;;;;;;;;;5030230;28;20122;-82
2023/02/16 14:35:06;;;;;;;28.15;13.40;;;;;;;;;;5031577;28;20673;-81
2023/02/16 14:37:38;;;;;;;26.27;12.90;;;;;;;;;;5028738;28;20442;-81
2023/02/16 14:40:12;;;;;;;26.05;12.68;;;;;;;;;;5032951;28;20050;-80
2023/02/16 14:42:43;;;;;;;26.52;12.65;;;;;;;;;;5032589;28;20139;-81
2023/02/16 14:45:09;;;;;;;28.73;13.35;;;;;;;;;;5032143;28;20072;-80
2023/02/16 14:47:43;;;;;;;24.83;13.20;;;;;;;;;;5032293;28;20045;-79
2023/02/16 14:50:21;;;;;;;27.30;12.88;;;;;;;;;;5033822;28;20080;-80
2023/02/16 14:52:57;;;;;;;29.10;13.52;;;;;;;;;;5032681;28;20075;-81
2023/02/16 14:55:39;;;;;;;30.35;13.85;;;;;;;;;;5036518;28;20133;-80
2023/02/16 14:58:12;;;;;;;25.70;13.38;;;;;;;;;;5020357;28;20057;-80
2023/02/16 15:00:44;;;;;;;31.83;12.90;;;;;;;;;;5027219;28;20041;-78
2023/02/16 15:03:15;;;;;;;24.77;12.10;;;;;;;;;;5027129;28;20056;-80
2023/02/16 15:05:42;;;;;;;25.77;12.63;;;;;;;;;;5024253;28;20425;-80
2023/02/16 15:08:16;;;;;;;29.58;12.63;;;;;;;;;;5023408;28;20121;-79
2023/02/16 15:10:45;;;;;;;31.42;13.00;;;;;;;;;;5025867;28;20052;-81
2023/02/16 15:13:28;;;;;;;28.60;12.27;;;;;;;;;;5027066;28;20053;-78
2023/02/16 15:15:57;;;;;;;23.35;11.43;;;;;;;;;;5025465;28;20494;-81
2023/02/16 15:18:26;;;;;;;25.00;12.43;;;;;;;;;;5005516;28;20065;-78